sensor_id;sensor_type;location;lat;lon;timestamp;P1;durP1;ratioP1;P2;durP2;ratioP2
52742;SDS011;55583;53.012;6.556;2023-04-07T00:00:19;158.68;;;49.75;;
52742;SDS011;55583;53.012;6.556;2023-04-07T00:02:45;140.35;;;45.45;;
52742;SDS011;55583;53.012;6.556;2023-04-07T00:05:11;167.27;;;54.20;;
52742;SDS011;55583;53.012;6.556;2023-04-07T00:07:37;194.38;;;58.20;;
52742;SDS011;55583;53.012;6.556;2023-04-07T00:10:02;257.02;;;63.78;;
52742;SDS011;55583;53.012;6.556;2023-04-07T00:12:28;114.90;;;45.83;;
52742;SDS011;55583;53.012;6.556;2023-04-07T00:14:54;137.38;;;47.90;;
52742;SDS011;55583;53.012;6.556;2023-04-07T00:17:20;146.73;;;49.67;;
52742;SDS011;55583;53.012;6.556;2023-04-07T00:19:46;159.70;;;52.17;;
52742;SDS011;55583;53.012;6.556;2023-04-07T00:22:11;138.82;;;51.00;;
52742;SDS011;55583;53.012;6.556;2023-04-07T00:24:37;174.38;;;54.63;;
52742;SDS011;55583;53.012;6.556;2023-04-07T00:27:02;235.80;;;61.42;;
52742;SDS011;55583;53.012;6.556;2023-04-07T00:29:28;129.95;;;46.35;;
52742;SDS011;55583;53.012;6.556;2023-04-07T00:31:54;180.95;;;55.30;;
52742;SDS011;55583;53.012;6.556;2023-04-07T00:34:20;140.10;;;50.92;;
52742;SDS011;55583;53.012;6.556;2023-04-07T00:36:45;154.15;;;51.65;;
52742;SDS011;55583;53.012;6.556;2023-04-07T00:39:19;153.88;;;48.83;;
52742;SDS011;55583;53.012;6.556;2023-04-07T00:41:45;170.77;;;54.95;;
52742;SDS011;55583;53.012;6.556;2023-04-07T00:44:12;133.73;;;52.28;;
52742;SDS011;55583;53.012;6.556;2023-04-07T00:46:38;176.52;;;53.58;;
52742;SDS011;55583;53.012;6.556;2023-04-07T00:49:05;162.65;;;53.20;;
52742;SDS011;55583;53.012;6.556;2023-04-07T00:51:31;128.13;;;46.47;;
52742;SDS011;55583;53.012;6.556;2023-04-07T00:53:57;117.85;;;43.55;;
52742;SDS011;55583;53.012;6.556;2023-04-07T00:56:23;298.33;;;66.78;;
52742;SDS011;55583;53.012;6.556;2023-04-07T00:58:49;314.52;;;70.68;;
52742;SDS011;55583;53.012;6.556;2023-04-07T01:01:20;133.95;;;45.70;;
52742;SDS011;55583;53.012;6.556;2023-04-07T01:04:38;175.35;;;54.38;;
52742;SDS011;55583;53.012;6.556;2023-04-07T01:06:43;148.68;;;52.22;;
52742;SDS011;55583;53.012;6.556;2023-04-07T01:09:22;126.57;;;48.38;;
52742;SDS011;55583;53.012;6.556;2023-04-07T01:12:10;178.18;;;56.15;;
52742;SDS011;55583;53.012;6.556;2023-04-07T01:14:50;118.78;;;48.45;;
52742;SDS011;55583;53.012;6.556;2023-04-07T01:17:18;197.82;;;56.40;;
52742;SDS011;55583;53.012;6.556;2023-04-07T01:19:55;150.13;;;51.17;;
52742;SDS011;55583;53.012;6.556;2023-04-07T01:22:27;182.80;;;55.25;;
52742;SDS011;55583;53.012;6.556;2023-04-07T01:27:57;187.07;;;55.28;;
52742;SDS011;55583;53.012;6.556;2023-04-07T01:30:26;129.23;;;48.90;;
52742;SDS011;55583;53.012;6.556;2023-04-07T01:32:55;136.70;;;49.38;;
52742;SDS011;55583;53.012;6.556;2023-04-07T01:35:23;141.10;;;49.50;;
52742;SDS011;55583;53.012;6.556;2023-04-07T01:37:53;130.52;;;47.13;;
52742;SDS011;55583;53.012;6.556;2023-04-07T01:40:20;117.15;;;47.50;;
52742;SDS011;55583;53.012;6.556;2023-04-07T01:42:46;134.40;;;49.78;;
52742;SDS011;55583;53.012;6.556;2023-04-07T01:45:13;140.05;;;49.90;;
52742;SDS011;55583;53.012;6.556;2023-04-07T01:47:41;153.65;;;48.97;;
52742;SDS011;55583;53.012;6.556;2023-04-07T01:50:08;178.73;;;53.47;;
52742;SDS011;55583;53.012;6.556;2023-04-07T01:52:36;131.85;;;48.30;;
52742;SDS011;55583;53.012;6.556;2023-04-07T01:55:03;133.32;;;48.63;;
52742;SDS011;55583;53.012;6.556;2023-04-07T01:57:30;135.75;;;47.17;;
52742;SDS011;55583;53.012;6.556;2023-04-07T01:59:56;131.27;;;47.88;;
52742;SDS011;55583;53.012;6.556;2023-04-07T02:02:21;153.50;;;51.30;;
52742;SDS011;55583;53.012;6.556;2023-04-07T02:04:54;147.63;;;48.25;;
52742;SDS011;55583;53.012;6.556;2023-04-07T02:10:20;132.73;;;47.45;;
52742;SDS011;55583;53.012;6.556;2023-04-07T02:12:48;174.80;;;52.10;;
52742;SDS011;55583;53.012;6.556;2023-04-07T02:15:14;136.07;;;47.53;;
52742;SDS011;55583;53.012;6.556;2023-04-07T02:17:41;110.82;;;42.55;;
52742;SDS011;55583;53.012;6.556;2023-04-07T02:20:09;124.13;;;45.72;;
52742;SDS011;55583;53.012;6.556;2023-04-07T02:22:39;139.38;;;47.78;;
52742;SDS011;55583;53.012;6.556;2023-04-07T02:25:23;241.07;;;57.63;;
52742;SDS011;55583;53.012;6.556;2023-04-07T02:27:50;114.05;;;45.72;;
52742;SDS011;55583;53.012;6.556;2023-04-07T02:30:17;156.73;;;49.17;;
52742;SDS011;55583;53.012;6.556;2023-04-07T02:32:46;162.18;;;47.88;;
52742;SDS011;55583;53.012;6.556;2023-04-07T02:35:12;189.55;;;54.22;;
52742;SDS011;55583;53.012;6.556;2023-04-07T02:37:38;236.90;;;59.95;;
52742;SDS011;55583;53.012;6.556;2023-04-07T02:40:04;142.10;;;49.28;;
52742;SDS011;55583;53.012;6.556;2023-04-07T02:42:31;137.70;;;46.55;;
52742;SDS011;55583;53.012;6.556;2023-04-07T02:44:57;102.22;;;41.78;;
52742;SDS011;55583;53.012;6.556;2023-04-07T02:47:23;125.63;;;46.67;;
52742;SDS011;55583;53.012;6.556;2023-04-07T02:49:49;126.95;;;44.78;;
52742;SDS011;55583;53.012;6.556;2023-04-07T02:52:15;137.93;;;48.55;;
52742;SDS011;55583;53.012;6.556;2023-04-07T02:54:41;226.10;;;56.35;;
52742;SDS011;55583;53.012;6.556;2023-04-07T02:57:07;136.68;;;48.10;;
52742;SDS011;55583;53.012;6.556;2023-04-07T02:59:32;116.75;;;45.42;;
52742;SDS011;55583;53.012;6.556;2023-04-07T03:01:58;127.72;;;47.05;;
52742;SDS011;55583;53.012;6.556;2023-04-07T03:04:26;111.30;;;43.95;;
52742;SDS011;55583;53.012;6.556;2023-04-07T03:06:52;102.78;;;42.60;;
52742;SDS011;55583;53.012;6.556;2023-04-07T03:09:18;157.55;;;49.33;;
52742;SDS011;55583;53.012;6.556;2023-04-07T03:11:43;120.50;;;42.75;;
52742;SDS011;55583;53.012;6.556;2023-04-07T03:14:09;240.80;;;60.55;;
52742;SDS011;55583;53.012;6.556;2023-04-07T03:16:35;112.15;;;44.00;;
52742;SDS011;55583;53.012;6.556;2023-04-07T03:19:00;147.48;;;48.15;;
52742;SDS011;55583;53.012;6.556;2023-04-07T03:21:29;108.97;;;45.13;;
52742;SDS011;55583;53.012;6.556;2023-04-07T03:23:55;177.68;;;50.30;;
52742;SDS011;55583;53.012;6.556;2023-04-07T03:26:21;126.05;;;46.47;;
52742;SDS011;55583;53.012;6.556;2023-04-07T03:28:47;125.13;;;46.92;;
52742;SDS011;55583;53.012;6.556;2023-04-07T03:31:13;115.78;;;45.05;;
52742;SDS011;55583;53.012;6.556;2023-04-07T03:33:39;114.70;;;43.67;;
52742;SDS011;55583;53.012;6.556;2023-04-07T03:36:05;124.88;;;47.90;;
52742;SDS011;55583;53.012;6.556;2023-04-07T03:38:32;114.28;;;44.42;;
52742;SDS011;55583;53.012;6.556;2023-04-07T03:41:00;124.15;;;47.83;;
52742;SDS011;55583;53.012;6.556;2023-04-07T03:43:25;142.13;;;48.13;;
52742;SDS011;55583;53.012;6.556;2023-04-07T03:45:52;123.43;;;47.33;;
52742;SDS011;55583;53.012;6.556;2023-04-07T03:48:18;124.03;;;46.38;;
52742;SDS011;55583;53.012;6.556;2023-04-07T03:50:44;127.60;;;46.85;;
52742;SDS011;55583;53.012;6.556;2023-04-07T03:53:10;179.88;;;52.70;;
52742;SDS011;55583;53.012;6.556;2023-04-07T03:55:38;114.70;;;45.17;;
52742;SDS011;55583;53.012;6.556;2023-04-07T03:58:04;129.05;;;48.25;;
52742;SDS011;55583;53.012;6.556;2023-04-07T04:00:30;120.03;;;46.42;;
52742;SDS011;55583;53.012;6.556;2023-04-07T04:02:57;106.60;;;44.88;;
52742;SDS011;55583;53.012;6.556;2023-04-07T04:05:23;116.70;;;44.35;;
52742;SDS011;55583;53.012;6.556;2023-04-07T04:07:49;115.93;;;45.65;;
52742;SDS011;55583;53.012;6.556;2023-04-07T04:10:17;105.20;;;44.60;;
52742;SDS011;55583;53.012;6.556;2023-04-07T04:12:43;112.38;;;43.75;;
52742;SDS011;55583;53.012;6.556;2023-04-07T04:15:09;91.35;;;40.08;;
52742;SDS011;55583;53.012;6.556;2023-04-07T04:17:35;148.15;;;48.42;;
52742;SDS011;55583;53.012;6.556;2023-04-07T04:20:01;102.05;;;41.95;;
52742;SDS011;55583;53.012;6.556;2023-04-07T04:22:27;124.28;;;44.85;;
52742;SDS011;55583;53.012;6.556;2023-04-07T04:24:52;97.18;;;41.80;;
52742;SDS011;55583;53.012;6.556;2023-04-07T04:27:18;105.68;;;42.13;;
52742;SDS011;55583;53.012;6.556;2023-04-07T04:29:43;95.53;;;42.03;;
52742;SDS011;55583;53.012;6.556;2023-04-07T04:32:09;139.60;;;45.90;;
52742;SDS011;55583;53.012;6.556;2023-04-07T04:34:35;128.18;;;45.72;;
52742;SDS011;55583;53.012;6.556;2023-04-07T04:37:01;167.88;;;49.00;;
52742;SDS011;55583;53.012;6.556;2023-04-07T04:39:26;100.20;;;43.17;;
52742;SDS011;55583;53.012;6.556;2023-04-07T04:41:52;161.60;;;51.15;;
52742;SDS011;55583;53.012;6.556;2023-04-07T04:44:17;124.55;;;46.88;;
52742;SDS011;55583;53.012;6.556;2023-04-07T04:46:43;114.68;;;45.80;;
52742;SDS011;55583;53.012;6.556;2023-04-07T04:49:08;106.40;;;44.63;;
52742;SDS011;55583;53.012;6.556;2023-04-07T04:51:34;128.48;;;47.53;;
52742;SDS011;55583;53.012;6.556;2023-04-07T04:54:00;133.43;;;48.22;;
52742;SDS011;55583;53.012;6.556;2023-04-07T04:56:27;118.35;;;46.65;;
52742;SDS011;55583;53.012;6.556;2023-04-07T04:58:53;111.40;;;44.03;;
52742;SDS011;55583;53.012;6.556;2023-04-07T05:01:19;144.77;;;50.47;;
52742;SDS011;55583;53.012;6.556;2023-04-07T05:03:45;154.40;;;49.58;;
52742;SDS011;55583;53.012;6.556;2023-04-07T05:06:10;153.68;;;49.15;;
52742;SDS011;55583;53.012;6.556;2023-04-07T05:08:36;125.82;;;48.05;;
52742;SDS011;55583;53.012;6.556;2023-04-07T05:11:01;178.48;;;54.40;;
52742;SDS011;55583;53.012;6.556;2023-04-07T05:13:27;101.53;;;42.03;;
52742;SDS011;55583;53.012;6.556;2023-04-07T05:15:55;129.13;;;46.95;;
52742;SDS011;55583;53.012;6.556;2023-04-07T05:18:20;128.32;;;47.95;;
52742;SDS011;55583;53.012;6.556;2023-04-07T05:20:47;116.68;;;46.42;;
52742;SDS011;55583;53.012;6.556;2023-04-07T05:23:13;121.70;;;46.80;;
52742;SDS011;55583;53.012;6.556;2023-04-07T05:25:39;129.15;;;48.70;;
52742;SDS011;55583;53.012;6.556;2023-04-07T05:28:04;122.82;;;47.17;;
52742;SDS011;55583;53.012;6.556;2023-04-07T05:30:30;113.15;;;47.13;;
52742;SDS011;55583;53.012;6.556;2023-04-07T05:32:56;122.95;;;48.38;;
52742;SDS011;55583;53.012;6.556;2023-04-07T05:35:21;112.65;;;44.35;;
52742;SDS011;55583;53.012;6.556;2023-04-07T05:37:47;105.63;;;41.58;;
52742;SDS011;55583;53.012;6.556;2023-04-07T05:40:13;128.60;;;45.33;;
52742;SDS011;55583;53.012;6.556;2023-04-07T05:42:39;102.30;;;44.55;;
52742;SDS011;55583;53.012;6.556;2023-04-07T05:45:05;151.23;;;51.83;;
52742;SDS011;55583;53.012;6.556;2023-04-07T05:47:31;96.32;;;40.65;;
52742;SDS011;55583;53.012;6.556;2023-04-07T05:49:57;89.43;;;40.38;;
52742;SDS011;55583;53.012;6.556;2023-04-07T05:52:23;113.60;;;45.42;;
52742;SDS011;55583;53.012;6.556;2023-04-07T05:54:48;127.82;;;47.67;;
52742;SDS011;55583;53.012;6.556;2023-04-07T05:57:14;97.45;;;44.05;;
52742;SDS011;55583;53.012;6.556;2023-04-07T05:59:40;99.70;;;43.33;;
52742;SDS011;55583;53.012;6.556;2023-04-07T06:02:06;104.13;;;43.30;;
52742;SDS011;55583;53.012;6.556;2023-04-07T06:04:31;111.60;;;44.95;;
52742;SDS011;55583;53.012;6.556;2023-04-07T06:06:59;123.70;;;46.65;;
52742;SDS011;55583;53.012;6.556;2023-04-07T06:09:25;103.40;;;41.63;;
52742;SDS011;55583;53.012;6.556;2023-04-07T06:11:51;121.32;;;44.78;;
52742;SDS011;55583;53.012;6.556;2023-04-07T06:14:17;90.43;;;41.42;;
52742;SDS011;55583;53.012;6.556;2023-04-07T06:16:43;99.40;;;41.63;;
52742;SDS011;55583;53.012;6.556;2023-04-07T06:19:08;85.15;;;41.05;;
52742;SDS011;55583;53.012;6.556;2023-04-07T06:21:40;88.28;;;40.30;;
52742;SDS011;55583;53.012;6.556;2023-04-07T06:24:06;92.25;;;42.55;;
52742;SDS011;55583;53.012;6.556;2023-04-07T06:26:32;90.63;;;40.78;;
52742;SDS011;55583;53.012;6.556;2023-04-07T06:28:57;85.13;;;39.50;;
52742;SDS011;55583;53.012;6.556;2023-04-07T06:31:23;78.88;;;37.70;;
52742;SDS011;55583;53.012;6.556;2023-04-07T06:33:50;76.78;;;38.83;;
52742;SDS011;55583;53.012;6.556;2023-04-07T06:36:15;102.88;;;42.35;;
52742;SDS011;55583;53.012;6.556;2023-04-07T06:38:41;86.60;;;40.03;;
52742;SDS011;55583;53.012;6.556;2023-04-07T06:41:07;90.78;;;42.97;;
52742;SDS011;55583;53.012;6.556;2023-04-07T06:43:37;71.07;;;35.78;;
52742;SDS011;55583;53.012;6.556;2023-04-07T06:46:02;86.38;;;39.78;;
52742;SDS011;55583;53.012;6.556;2023-04-07T06:48:28;72.03;;;37.25;;
52742;SDS011;55583;53.012;6.556;2023-04-07T06:50:54;73.15;;;34.95;;
52742;SDS011;55583;53.012;6.556;2023-04-07T06:53:20;77.32;;;37.03;;
52742;SDS011;55583;53.012;6.556;2023-04-07T06:55:45;75.35;;;35.17;;
52742;SDS011;55583;53.012;6.556;2023-04-07T06:58:11;70.90;;;37.40;;
52742;SDS011;55583;53.012;6.556;2023-04-07T07:00:36;67.88;;;36.60;;
52742;SDS011;55583;53.012;6.556;2023-04-07T07:03:02;71.75;;;36.00;;
52742;SDS011;55583;53.012;6.556;2023-04-07T07:05:28;55.65;;;32.15;;
52742;SDS011;55583;53.012;6.556;2023-04-07T07:07:53;60.03;;;32.33;;
52742;SDS011;55583;53.012;6.556;2023-04-07T07:10:19;62.25;;;34.55;;
52742;SDS011;55583;53.012;6.556;2023-04-07T07:12:46;67.65;;;34.47;;
52742;SDS011;55583;53.012;6.556;2023-04-07T07:15:15;72.15;;;33.33;;
52742;SDS011;55583;53.012;6.556;2023-04-07T07:17:42;67.07;;;35.35;;
52742;SDS011;55583;53.012;6.556;2023-04-07T07:20:08;61.33;;;32.20;;
52742;SDS011;55583;53.012;6.556;2023-04-07T07:22:34;51.00;;;30.63;;
52742;SDS011;55583;53.012;6.556;2023-04-07T07:24:59;43.67;;;27.60;;
52742;SDS011;55583;53.012;6.556;2023-04-07T07:27:25;50.00;;;30.50;;
52742;SDS011;55583;53.012;6.556;2023-04-07T07:29:51;45.45;;;27.92;;
52742;SDS011;55583;53.012;6.556;2023-04-07T07:32:17;49.13;;;28.42;;
52742;SDS011;55583;53.012;6.556;2023-04-07T07:34:42;50.40;;;29.88;;
52742;SDS011;55583;53.012;6.556;2023-04-07T07:37:08;47.33;;;27.65;;
52742;SDS011;55583;53.012;6.556;2023-04-07T07:39:34;40.92;;;26.65;;
52742;SDS011;55583;53.012;6.556;2023-04-07T07:41:59;41.17;;;25.63;;
52742;SDS011;55583;53.012;6.556;2023-04-07T07:44:25;39.85;;;24.35;;
52742;SDS011;55583;53.012;6.556;2023-04-07T07:46:51;46.05;;;27.92;;
52742;SDS011;55583;53.012;6.556;2023-04-07T07:49:16;37.00;;;25.45;;
52742;SDS011;55583;53.012;6.556;2023-04-07T07:51:42;39.33;;;24.85;;
52742;SDS011;55583;53.012;6.556;2023-04-07T07:54:10;35.38;;;23.15;;
52742;SDS011;55583;53.012;6.556;2023-04-07T07:56:35;39.15;;;24.05;;
52742;SDS011;55583;53.012;6.556;2023-04-07T07:59:02;34.13;;;23.40;;
52742;SDS011;55583;53.012;6.556;2023-04-07T08:01:30;32.05;;;21.15;;
52742;SDS011;55583;53.012;6.556;2023-04-07T08:03:56;33.15;;;21.42;;
52742;SDS011;55583;53.012;6.556;2023-04-07T08:06:21;33.63;;;22.27;;
52742;SDS011;55583;53.012;6.556;2023-04-07T08:08:47;30.35;;;21.50;;
52742;SDS011;55583;53.012;6.556;2023-04-07T08:11:16;27.65;;;20.02;;
52742;SDS011;55583;53.012;6.556;2023-04-07T08:13:41;29.38;;;20.65;;
52742;SDS011;55583;53.012;6.556;2023-04-07T08:16:09;28.83;;;20.08;;
52742;SDS011;55583;53.012;6.556;2023-04-07T08:18:35;27.55;;;18.80;;
52742;SDS011;55583;53.012;6.556;2023-04-07T08:21:02;25.23;;;17.48;;
52742;SDS011;55583;53.012;6.556;2023-04-07T08:23:29;24.60;;;17.40;;
52742;SDS011;55583;53.012;6.556;2023-04-07T08:25:54;25.00;;;17.40;;
52742;SDS011;55583;53.012;6.556;2023-04-07T08:28:20;25.58;;;17.27;;
52742;SDS011;55583;53.012;6.556;2023-04-07T08:30:47;26.13;;;18.42;;
52742;SDS011;55583;53.012;6.556;2023-04-07T08:33:12;27.77;;;19.48;;
52742;SDS011;55583;53.012;6.556;2023-04-07T08:35:38;30.38;;;20.88;;
52742;SDS011;55583;53.012;6.556;2023-04-07T08:38:03;31.52;;;19.80;;
52742;SDS011;55583;53.012;6.556;2023-04-07T08:40:30;23.98;;;16.80;;
52742;SDS011;55583;53.012;6.556;2023-04-07T08:42:57;27.35;;;18.75;;
52742;SDS011;55583;53.012;6.556;2023-04-07T08:45:25;26.25;;;17.13;;
52742;SDS011;55583;53.012;6.556;2023-04-07T08:47:54;22.88;;;17.38;;
52742;SDS011;55583;53.012;6.556;2023-04-07T08:50:22;24.33;;;16.35;;
52742;SDS011;55583;53.012;6.556;2023-04-07T08:55:21;20.40;;;15.25;;
52742;SDS011;55583;53.012;6.556;2023-04-07T08:57:47;22.85;;;16.17;;
52742;SDS011;55583;53.012;6.556;2023-04-07T09:00:13;23.40;;;13.73;;
52742;SDS011;55583;53.012;6.556;2023-04-07T09:02:40;20.30;;;13.63;;
52742;SDS011;55583;53.012;6.556;2023-04-07T09:05:11;22.13;;;14.65;;
52742;SDS011;55583;53.012;6.556;2023-04-07T09:07:40;18.63;;;14.23;;
52742;SDS011;55583;53.012;6.556;2023-04-07T09:10:09;22.70;;;14.05;;
52742;SDS011;55583;53.012;6.556;2023-04-07T09:12:35;18.85;;;12.75;;
52742;SDS011;55583;53.012;6.556;2023-04-07T09:15:02;17.98;;;12.50;;
52742;SDS011;55583;53.012;6.556;2023-04-07T09:17:29;18.30;;;12.48;;
52742;SDS011;55583;53.012;6.556;2023-04-07T09:19:55;16.98;;;11.38;;
52742;SDS011;55583;53.012;6.556;2023-04-07T09:22:38;16.83;;;12.32;;
52742;SDS011;55583;53.012;6.556;2023-04-07T09:30:20;15.68;;;11.68;;
52742;SDS011;55583;53.012;6.556;2023-04-07T09:32:46;16.45;;;12.43;;
52742;SDS011;55583;53.012;6.556;2023-04-07T09:35:15;16.17;;;11.13;;
52742;SDS011;55583;53.012;6.556;2023-04-07T09:37:40;14.95;;;10.90;;
52742;SDS011;55583;53.012;6.556;2023-04-07T09:40:06;14.18;;;10.77;;
52742;SDS011;55583;53.012;6.556;2023-04-07T09:42:33;14.77;;;10.98;;
52742;SDS011;55583;53.012;6.556;2023-04-07T09:45:00;14.45;;;10.73;;
52742;SDS011;55583;53.012;6.556;2023-04-07T09:47:30;17.00;;;12.07;;
52742;SDS011;55583;53.012;6.556;2023-04-07T09:49:56;15.35;;;12.18;;
52742;SDS011;55583;53.012;6.556;2023-04-07T09:55:20;16.48;;;11.57;;
52742;SDS011;55583;53.012;6.556;2023-04-07T09:57:50;20.08;;;11.85;;
52742;SDS011;55583;53.012;6.556;2023-04-07T10:00:17;13.45;;;10.32;;
52742;SDS011;55583;53.012;6.556;2023-04-07T10:02:43;16.25;;;11.82;;
52742;SDS011;55583;53.012;6.556;2023-04-07T10:05:09;16.63;;;11.50;;
52742;SDS011;55583;53.012;6.556;2023-04-07T10:07:35;15.45;;;11.32;;
52742;SDS011;55583;53.012;6.556;2023-04-07T10:10:04;15.60;;;11.07;;
52742;SDS011;55583;53.012;6.556;2023-04-07T10:12:33;16.75;;;11.57;;
52742;SDS011;55583;53.012;6.556;2023-04-07T10:15:00;12.15;;;9.90;;
52742;SDS011;55583;53.012;6.556;2023-04-07T10:17:28;16.48;;;11.25;;
52742;SDS011;55583;53.012;6.556;2023-04-07T10:19:56;15.68;;;10.82;;
52742;SDS011;55583;53.012;6.556;2023-04-07T10:22:23;15.32;;;10.98;;
52742;SDS011;55583;53.012;6.556;2023-04-07T10:24:58;15.15;;;11.55;;
52742;SDS011;55583;53.012;6.556;2023-04-07T10:27:44;16.80;;;13.25;;
52742;SDS011;55583;53.012;6.556;2023-04-07T10:30:30;13.00;;;10.10;;
52742;SDS011;55583;53.012;6.556;2023-04-07T10:32:57;12.27;;;10.48;;
52742;SDS011;55583;53.012;6.556;2023-04-07T10:35:23;10.90;;;9.25;;
52742;SDS011;55583;53.012;6.556;2023-04-07T10:40:36;17.00;;;9.93;;
52742;SDS011;55583;53.012;6.556;2023-04-07T10:43:02;13.95;;;9.98;;
52742;SDS011;55583;53.012;6.556;2023-04-07T10:48:13;14.70;;;10.02;;
52742;SDS011;55583;53.012;6.556;2023-04-07T10:50:39;12.65;;;10.32;;
52742;SDS011;55583;53.012;6.556;2023-04-07T10:53:10;14.07;;;10.55;;
52742;SDS011;55583;53.012;6.556;2023-04-07T10:55:41;14.13;;;11.27;;
52742;SDS011;55583;53.012;6.556;2023-04-07T10:58:12;14.45;;;11.13;;
52742;SDS011;55583;53.012;6.556;2023-04-07T11:03:25;12.63;;;10.60;;
52742;SDS011;55583;53.012;6.556;2023-04-07T11:06:07;13.45;;;10.20;;
52742;SDS011;55583;53.012;6.556;2023-04-07T11:08:34;14.55;;;10.43;;
52742;SDS011;55583;53.012;6.556;2023-04-07T11:11:06;11.55;;;9.40;;
52742;SDS011;55583;53.012;6.556;2023-04-07T11:13:42;11.75;;;9.88;;
52742;SDS011;55583;53.012;6.556;2023-04-07T11:16:12;12.75;;;9.10;;
52742;SDS011;55583;53.012;6.556;2023-04-07T11:18:42;9.50;;;7.82;;
52742;SDS011;55583;53.012;6.556;2023-04-07T11:21:09;10.55;;;8.35;;
52742;SDS011;55583;53.012;6.556;2023-04-07T11:23:38;11.15;;;8.45;;
52742;SDS011;55583;53.012;6.556;2023-04-07T11:26:08;9.82;;;8.40;;
52742;SDS011;55583;53.012;6.556;2023-04-07T11:28:36;8.82;;;7.57;;
52742;SDS011;55583;53.012;6.556;2023-04-07T11:31:22;13.38;;;8.27;;
52742;SDS011;55583;53.012;6.556;2023-04-07T11:33:56;12.40;;;9.38;;
52742;SDS011;55583;53.012;6.556;2023-04-07T11:36:27;10.13;;;8.02;;
52742;SDS011;55583;53.012;6.556;2023-04-07T11:38:54;11.35;;;8.23;;
52742;SDS011;55583;53.012;6.556;2023-04-07T11:41:21;14.10;;;8.35;;
52742;SDS011;55583;53.012;6.556;2023-04-07T11:43:47;10.18;;;7.90;;
52742;SDS011;55583;53.012;6.556;2023-04-07T11:46:15;8.80;;;7.07;;
52742;SDS011;55583;53.012;6.556;2023-04-07T11:48:42;9.40;;;7.53;;
52742;SDS011;55583;53.012;6.556;2023-04-07T11:51:19;9.55;;;7.22;;
52742;SDS011;55583;53.012;6.556;2023-04-07T11:53:53;10.32;;;6.97;;
52742;SDS011;55583;53.012;6.556;2023-04-07T11:56:20;9.68;;;7.45;;
52742;SDS011;55583;53.012;6.556;2023-04-07T11:58:49;9.18;;;7.05;;
52742;SDS011;55583;53.012;6.556;2023-04-07T12:01:15;10.32;;;8.45;;
52742;SDS011;55583;53.012;6.556;2023-04-07T12:04:00;10.18;;;7.22;;
52742;SDS011;55583;53.012;6.556;2023-04-07T12:06:31;8.82;;;7.25;;
52742;SDS011;55583;53.012;6.556;2023-04-07T12:09:01;9.15;;;7.10;;
52742;SDS011;55583;53.012;6.556;2023-04-07T12:11:28;10.38;;;7.85;;
52742;SDS011;55583;53.012;6.556;2023-04-07T12:13:54;8.98;;;7.40;;
52742;SDS011;55583;53.012;6.556;2023-04-07T12:16:21;8.93;;;7.40;;
52742;SDS011;55583;53.012;6.556;2023-04-07T12:18:47;9.88;;;7.45;;
52742;SDS011;55583;53.012;6.556;2023-04-07T12:21:13;10.68;;;7.95;;
52742;SDS011;55583;53.012;6.556;2023-04-07T12:23:39;11.00;;;7.72;;
52742;SDS011;55583;53.012;6.556;2023-04-07T12:26:05;9.90;;;7.78;;
52742;SDS011;55583;53.012;6.556;2023-04-07T12:28:31;9.27;;;7.90;;
52742;SDS011;55583;53.012;6.556;2023-04-07T12:30:56;10.32;;;7.50;;
52742;SDS011;55583;53.012;6.556;2023-04-07T12:33:22;10.27;;;7.85;;
52742;SDS011;55583;53.012;6.556;2023-04-07T12:35:48;10.15;;;7.57;;
52742;SDS011;55583;53.012;6.556;2023-04-07T12:38:14;8.63;;;7.15;;
52742;SDS011;55583;53.012;6.556;2023-04-07T12:40:40;9.32;;;7.15;;
52742;SDS011;55583;53.012;6.556;2023-04-07T12:43:06;8.30;;;6.80;;
52742;SDS011;55583;53.012;6.556;2023-04-07T12:45:31;7.05;;;6.03;;
52742;SDS011;55583;53.012;6.556;2023-04-07T12:48:00;7.85;;;6.75;;
52742;SDS011;55583;53.012;6.556;2023-04-07T12:50:26;7.90;;;6.43;;
52742;SDS011;55583;53.012;6.556;2023-04-07T12:52:52;8.95;;;6.47;;
52742;SDS011;55583;53.012;6.556;2023-04-07T12:55:19;7.53;;;5.78;;
52742;SDS011;55583;53.012;6.556;2023-04-07T12:57:45;7.07;;;5.68;;
52742;SDS011;55583;53.012;6.556;2023-04-07T13:00:11;7.47;;;5.35;;
52742;SDS011;55583;53.012;6.556;2023-04-07T13:02:38;7.10;;;5.85;;
52742;SDS011;55583;53.012;6.556;2023-04-07T13:05:03;6.53;;;5.85;;
52742;SDS011;55583;53.012;6.556;2023-04-07T13:07:29;8.63;;;5.70;;
52742;SDS011;55583;53.012;6.556;2023-04-07T13:09:55;6.97;;;6.05;;
52742;SDS011;55583;53.012;6.556;2023-04-07T13:12:21;8.75;;;6.00;;
52742;SDS011;55583;53.012;6.556;2023-04-07T13:14:48;9.05;;;5.72;;
52742;SDS011;55583;53.012;6.556;2023-04-07T13:17:13;6.65;;;5.63;;
52742;SDS011;55583;53.012;6.556;2023-04-07T13:19:39;7.30;;;5.53;;
52742;SDS011;55583;53.012;6.556;2023-04-07T13:22:05;8.25;;;5.05;;
52742;SDS011;55583;53.012;6.556;2023-04-07T13:24:31;5.97;;;4.63;;
52742;SDS011;55583;53.012;6.556;2023-04-07T13:26:59;8.57;;;5.70;;
52742;SDS011;55583;53.012;6.556;2023-04-07T13:29:25;5.50;;;4.93;;
52742;SDS011;55583;53.012;6.556;2023-04-07T13:31:51;5.72;;;4.93;;
52742;SDS011;55583;53.012;6.556;2023-04-07T13:34:16;5.82;;;4.88;;
52742;SDS011;55583;53.012;6.556;2023-04-07T13:36:42;7.60;;;5.05;;
52742;SDS011;55583;53.012;6.556;2023-04-07T13:39:08;5.53;;;4.95;;
52742;SDS011;55583;53.012;6.556;2023-04-07T13:41:34;5.80;;;5.20;;
52742;SDS011;55583;53.012;6.556;2023-04-07T13:44:00;5.97;;;5.38;;
52742;SDS011;55583;53.012;6.556;2023-04-07T13:46:26;6.85;;;6.20;;
52742;SDS011;55583;53.012;6.556;2023-04-07T13:48:52;6.60;;;5.70;;
52742;SDS011;55583;53.012;6.556;2023-04-07T13:51:17;6.25;;;5.22;;
52742;SDS011;55583;53.012;6.556;2023-04-07T13:53:43;8.07;;;6.13;;
52742;SDS011;55583;53.012;6.556;2023-04-07T13:56:09;8.07;;;6.65;;
52742;SDS011;55583;53.012;6.556;2023-04-07T13:58:36;6.40;;;5.53;;
52742;SDS011;55583;53.012;6.556;2023-04-07T14:01:02;6.95;;;6.15;;
52742;SDS011;55583;53.012;6.556;2023-04-07T14:03:28;7.28;;;6.10;;
52742;SDS011;55583;53.012;6.556;2023-04-07T14:05:54;7.22;;;6.50;;
52742;SDS011;55583;53.012;6.556;2023-04-07T14:08:24;7.78;;;6.60;;
52742;SDS011;55583;53.012;6.556;2023-04-07T14:10:51;7.68;;;6.30;;
52742;SDS011;55583;53.012;6.556;2023-04-07T14:13:16;7.00;;;6.18;;
52742;SDS011;55583;53.012;6.556;2023-04-07T14:15:42;8.48;;;6.65;;
52742;SDS011;55583;53.012;6.556;2023-04-07T14:18:08;8.65;;;6.03;;
52742;SDS011;55583;53.012;6.556;2023-04-07T14:20:33;8.43;;;6.80;;
52742;SDS011;55583;53.012;6.556;2023-04-07T14:22:59;8.63;;;6.85;;
52742;SDS011;55583;53.012;6.556;2023-04-07T14:25:25;21.20;;;7.80;;
52742;SDS011;55583;53.012;6.556;2023-04-07T14:27:51;8.32;;;6.60;;
52742;SDS011;55583;53.012;6.556;2023-04-07T14:30:17;9.30;;;7.00;;
52742;SDS011;55583;53.012;6.556;2023-04-07T14:32:43;12.48;;;7.88;;
52742;SDS011;55583;53.012;6.556;2023-04-07T14:35:08;8.90;;;7.25;;
52742;SDS011;55583;53.012;6.556;2023-04-07T14:37:34;8.05;;;6.75;;
52742;SDS011;55583;53.012;6.556;2023-04-07T14:40:03;8.32;;;7.40;;
52742;SDS011;55583;53.012;6.556;2023-04-07T14:42:30;8.60;;;7.70;;
52742;SDS011;55583;53.012;6.556;2023-04-07T14:44:58;8.50;;;7.60;;